Etusivu
METAR-TAF:

METAR-TAF

Lentoasemat :

Pihkova, Venäjä

Leveyspiiri: 57-47-06N, Pituuspiiri: 028-23-54E, korkeus merenpinnasta: 47 m

Tämänhetkinen sää

Tämä raportti tehtiin 39 minuuttia sitten, kello 09.00 UTC
Tuuli 8 kn koillisesta, vaihdellen pohjoisen ja idän välillä
Lämpötila 19°C
Kosteus 37%
Ilmanpaine 1022 hPa
Näkyvyys 10 km tai enemmän
ei pilviä alle 1500 m:ssä eikä cumulonimbus-pilviä

METAR: ULOO 210900Z 05004MPS 010V080 CAVOK 19/04 Q1022 R01/090066 NOSIG RMK QFE762

Aika: 12:39 (09:39 UTC)

Sääennuste

Tämä raportti tehtiin 1 tunti ja 45 minuuttia sitten, kello 07.54 UTC
Ennuste voimassa 21. päivästä klo 09 UTC - 21. päivään klo 18 UTC
Tuuli 10 kn koillisesta puuskistuen 19 kn:hen
Näkyvyys 10 km tai enemmän
Hajanaisia pilviä 2000 ft:n korkeudessa

TAF: ULOO 210754Z 2109/2118 05005G10MPS 9999 SCT020

Säähavainnot ja -ennusteet yli 4000 lentoasemalta (METAR- ja TAF-raportit).

Käytössä olevat sääasemat on merkitty karttaan keltaisilla ja punaisilla pisteillä.

Aseta hiiri pisteen päälle nähdäksesi sääaseman nimen.

Klikkaa sitten nähdäksesi säähavainnot ja -ennusteet.

Kartan vaihtaminen: klikkaa mustalla rastilla varustettuja vihreitä pisteitä, niin voit zoomata sisään; viivalla varustettua vihreää pistettä, niin voit zoomata ulos tai vihreitä nuolia, niin pääset viereisille kartoille.


METAR-TAF: